• Join FlightAware (Why Join?)
  • Login
  • US Flag 
09:17AM EDT


 

Airport Tracker/Info


-or-


 

Live Flight TrackerFlight Track Log ✈ N330CL ✈ 08-Jun-2013 ✈ KCMA - KSMO

Flight Track Log - Related Links

Times and Time Zones

All times are in EDT time to prevent confusion due to time zone crossing. See the N330CL flight status page for this flight to view local times or setup timezone preferences in your user account.

Time Position Orientation Groundspeed Altitude Reporting Facility
EDT Latitude Longitude Course Direction KTS MPH feet Rate Location/Type
08:36PM 34.2133 -119.1156 267° West 107 123 700  Level Los Angeles Center
08:37PM 34.2114 -119.1550 267° West 100 115 1,900 840 Climbing Los Angeles Center
08:38PM 34.1947 -119.1631 202° Southwest 77 89 2,500 780 Climbing Los Angeles Center
08:39PM 34.1964 -119.1281 87° East 101 116 3,400 780 Climbing Los Angeles Center
08:40PM 34.1972 -119.0922 88° East 103 119 4,200 720 Climbing Los Angeles Center
08:41PM 34.2003 -119.0506 85° East 125 144 4,900 360 Climbing Los Angeles Center
08:42PM 34.2025 -119.0064 87° East 134 154 5,000  Climbing Los Angeles Center
08:43PM 34.2050 -118.9544 87° East 152 175 5,000  Level Los Angeles Center
08:44PM 34.2075 -118.8861 87° East 166 191 5,000  Level Los Angeles Center
08:45PM 34.2103 -118.8311 86° East 167 192 5,000  Level Los Angeles Center
08:46PM 34.2133 -118.7753 86° East 167 192 5,000  Level Los Angeles Center
08:47PM 34.2147 -118.7242 88° East 160 184 5,000  Level Los Angeles Center
08:48PM 34.2156 -118.6714 89° East 157 181 5,000  Level Los Angeles Center
08:49PM 34.2183 -118.6183 86° East 157 181 5,000  Level Los Angeles Center
08:50PM 34.2217 -118.5681 85° East 154 177 5,000  Level Los Angeles Center
08:51PM 34.2239 -118.5050 88° East 155 178 5,000  Level Los Angeles Center
08:52PM 34.2156 -118.4558 102° East 157 181 5,000  Level Los Angeles Center
08:53PM 34.1986 -118.4094 114° Southeast 152 175 5,100  Climbing Los Angeles Center
08:54PM 34.1814 -118.3631 114° Southeast 152 175 5,100 -540 Level Los Angeles Center
08:55PM 34.1550 -118.3294 133° Southeast 140 161 4,100 -600 Descending Los Angeles Center
08:56PM 34.1308 -118.3058 141° Southeast 125 144 3,900 -780 Descending Los Angeles Center
08:57PM 34.1050 -118.3397 227° Southwest 136 157 2,600 -1,020 Descending Los Angeles Center
08:58PM 34.0797 -118.3728 227° Southwest 138 159 1,900 -780 Descending Los Angeles Center
08:59PM 34.0581 -118.3997 226° Southwest 126 145 1,100 -420 Descending Los Angeles Center
09:00PM 34.0364 -118.4272 226° Southwest 106 122 1,100 -480 Level Los Angeles Center
09:02PM 34.0175 -118.4492 224° Southwest 100 115 200 -900 Descending Los Angeles Center